Time;durP1;ratioP1;P1;durP2;ratioP2;P2;SDS_P1;SDS_P2;PMS_P1;PMS_P2;Temp;Humidity;BMP_temperature;BMP_pressure;BME280_temperature;BME280_humidity;BME280_pressure;Samples;Min_cycle;Max_cycle;Signal;HPM_P1;HPM_P2
2023/03/08 00:00:22;;;;;;;82.82;53.75;;;;;;;-1.24;100.00;99930.53;5075140;28;20028;-68
2023/03/08 00:02:47;;;;;;;86.68;53.80;;;;;;;-1.28;100.00;99928.66;5075139;28;20425;-68
2023/03/08 00:05:13;;;;;;;83.78;52.75;;;;;;;-1.28;100.00;99931.25;5075271;28;20090;-68
2023/03/08 00:07:38;;;;;;;83.10;53.08;;;;;;;-1.31;100.00;99925.94;5074924;28;20051;-68
2023/03/08 00:10:04;;;;;;;83.65;54.42;;;;;;;-1.31;100.00;99933.72;5074991;28;20386;-67
2023/03/08 00:12:30;;;;;;;85.47;54.83;;;;;;;-1.32;100.00;99935.44;5075330;28;20060;-68
2023/03/08 00:14:55;;;;;;;82.63;54.28;;;;;;;-1.31;100.00;99925.94;5074819;28;20422;-68
2023/03/08 00:17:21;;;;;;;84.05;53.95;;;;;;;-1.30;100.00;99927.72;5075096;28;20035;-67
2023/03/08 00:19:46;;;;;;;85.50;54.20;;;;;;;-1.30;100.00;99922.53;5075185;28;20032;-67
2023/03/08 00:22:11;;;;;;;85.15;55.58;;;;;;;-1.30;100.00;99935.50;5074981;28;20089;-67
2023/03/08 00:24:37;;;;;;;87.45;55.45;;;;;;;-1.31;100.00;99934.63;5072679;28;20028;-67
2023/03/08 00:27:03;;;;;;;90.05;57.17;;;;;;;-1.31;100.00;99937.22;5075047;28;20036;-68
2023/03/08 00:29:29;;;;;;;88.85;56.40;;;;;;;-1.33;100.00;99938.84;5074678;28;20115;-68
2023/03/08 00:31:54;;;;;;;88.60;56.33;;;;;;;-1.34;100.00;99931.94;5074745;28;20494;-68
2023/03/08 00:34:19;;;;;;;91.18;56.72;;;;;;;-1.31;100.00;99925.94;5074568;28;20032;-68
2023/03/08 00:36:45;;;;;;;88.13;55.10;;;;;;;-1.30;100.00;99928.59;5074502;28;20401;-68
2023/03/08 00:39:11;;;;;;;82.82;53.70;;;;;;;-1.25;100.00;99934.84;5074915;28;20486;-67
2023/03/08 00:41:36;;;;;;;84.18;54.30;;;;;;;-1.22;100.00;99931.50;5074404;28;20094;-67
2023/03/08 00:44:03;;;;;;;89.38;55.90;;;;;;;-1.24;100.00;99930.53;5074289;28;20206;-68
2023/03/08 00:46:28;;;;;;;91.28;57.00;;;;;;;-1.22;100.00;99934.09;5074467;28;20032;-68
2023/03/08 00:48:54;;;;;;;93.70;56.40;;;;;;;-1.21;100.00;99922.00;5074053;28;20057;-68
2023/03/08 00:51:20;;;;;;;89.43;56.00;;;;;;;-1.19;100.00;99925.53;5074208;28;20032;-68
2023/03/08 00:53:46;;;;;;;95.65;57.03;;;;;;;-1.20;100.00;99919.47;5074511;28;20073;-68
2023/03/08 00:56:11;;;;;;;98.05;56.17;;;;;;;-1.18;100.00;99917.81;5073984;28;20032;-68
2023/03/08 00:58:38;;;;;;;93.95;57.78;;;;;;;-1.15;100.00;99928.31;5073979;28;20024;-68
2023/03/08 01:01:04;;;;;;;97.20;57.83;;;;;;;-1.13;100.00;99916.25;5074367;28;20077;-69
2023/03/08 01:03:30;;;;;;;101.35;57.42;;;;;;;-1.14;100.00;99911.91;5073942;28;20597;-67
2023/03/08 01:05:57;;;;;;;97.95;58.08;;;;;;;-1.11;100.00;99908.53;5073833;28;20104;-70
2023/03/08 01:08:24;;;;;;;105.00;59.45;;;;;;;-1.04;100.00;99917.44;5070123;28;20051;-66
2023/03/08 01:10:56;;;;;;;103.55;59.08;;;;;;;-1.06;100.00;99907.88;5073800;28;20028;-67
2023/03/08 01:13:23;;;;;;;110.47;60.30;;;;;;;-1.03;100.00;99911.41;5069808;28;20028;-74
2023/03/08 01:15:49;;;;;;;107.55;60.03;;;;;;;-1.04;100.00;99907.94;5073862;28;20103;-68
2023/03/08 01:18:14;;;;;;;106.95;59.10;;;;;;;-1.01;100.00;99891.59;5073624;28;20106;-68
2023/03/08 01:20:40;;;;;;;104.25;57.85;;;;;;;-1.00;100.00;99880.41;5073526;28;20485;-68
2023/03/08 01:23:05;;;;;;;113.28;60.10;;;;;;;-0.97;100.00;99883.97;5073778;28;20033;-69
2023/03/08 01:25:31;;;;;;;112.22;60.83;;;;;;;-0.97;100.00;99875.31;5073445;28;20032;-70
2023/03/08 01:27:56;;;;;;;118.35;59.65;;;;;;;-0.96;100.00;99874.47;5073336;28;20090;-70
2023/03/08 01:30:22;;;;;;;118.70;59.13;;;;;;;-0.95;100.00;99873.66;5073616;28;20064;-66
2023/03/08 01:32:47;;;;;;;119.32;58.47;;;;;;;-0.92;100.00;99871.16;5073303;28;20411;-70
2023/03/08 01:35:12;;;;;;;123.50;60.67;;;;;;;-0.90;100.00;99866.91;5073264;28;20056;-67
2023/03/08 01:37:38;;;;;;;123.97;59.20;;;;;;;-0.89;100.00;99859.19;5072595;28;20024;-68
2023/03/08 01:40:05;;;;;;;127.93;59.65;;;;;;;-0.89;100.00;99853.09;5073229;28;20083;-71
2023/03/08 01:42:31;;;;;;;130.00;58.30;;;;;;;-0.86;100.00;99853.19;5073397;28;20025;-71
2023/03/08 01:45:03;;;;;;;121.47;57.58;;;;;;;-0.81;100.00;99855.97;5073591;28;20120;-68
2023/03/08 01:47:31;;;;;;;131.27;58.60;;;;;;;-0.80;100.00;99853.44;5072817;28;20131;-66
2023/03/08 01:50:01;;;;;;;128.20;56.20;;;;;;;-0.76;100.00;99855.31;5073046;28;20046;-67
2023/03/08 01:52:32;;;;;;;132.77;58.72;;;;;;;-0.76;100.00;99842.34;5073120;28;20025;-68
2023/03/08 01:55:02;;;;;;;133.98;58.72;;;;;;;-0.76;100.00;99844.94;5072943;28;20379;-68
2023/03/08 01:57:31;;;;;;;127.82;56.53;;;;;;;-0.75;100.00;99841.47;5072830;28;20483;-68
2023/03/08 02:00:10;;;;;;;129.98;55.78;;;;;;;-0.73;100.00;99839.84;5072893;28;20443;-69
2023/03/08 02:02:58;;;;;;;134.40;56.80;;;;;;;-0.72;100.00;99840.69;5072970;28;20032;-71
2023/03/08 02:05:25;;;;;;;130.90;55.08;;;;;;;-0.71;100.00;99832.09;5069274;28;20025;-66
2023/03/08 02:07:50;;;;;;;137.50;56.88;;;;;;;-0.71;100.00;99827.78;5072737;28;20032;-68
2023/03/08 02:10:16;;;;;;;136.35;56.40;;;;;;;-0.71;100.00;99826.91;5072735;28;20035;-69
2023/03/08 02:12:43;;;;;;;138.27;56.85;;;;;;;-0.71;100.00;99826.91;5073149;28;20417;-69
2023/03/08 02:15:11;;;;;;;129.88;54.63;;;;;;;-0.70;100.00;99818.25;5072953;28;20029;-68
2023/03/08 02:17:38;;;;;;;135.57;55.40;;;;;;;-0.68;100.00;99811.44;5072675;28;20102;-68
2023/03/08 02:20:15;;;;;;;131.25;54.35;;;;;;;-0.65;100.00;99805.47;5072855;28;20103;-67
2023/03/08 02:22:41;;;;;;;134.82;54.75;;;;;;;-0.66;100.00;99794.19;5072748;28;20419;-68
2023/03/08 02:25:31;;;;;;;136.25;54.38;;;;;;;-0.65;100.00;99798.53;5071333;28;20032;-68
2023/03/08 02:27:56;;;;;;;135.07;53.63;;;;;;;-0.62;100.00;99784.78;5069097;28;20040;-68
2023/03/08 02:30:28;;;;;;;141.30;54.75;;;;;;;-0.64;100.00;99791.63;5068545;28;20035;-67
2023/03/08 02:32:53;;;;;;;135.10;54.75;;;;;;;-0.64;100.00;99792.53;5068872;28;20036;-68
2023/03/08 02:35:19;;;;;;;134.60;53.25;;;;;;;-0.64;100.00;99786.44;5072532;28;20375;-68
2023/03/08 02:37:44;;;;;;;138.75;55.60;;;;;;;-0.63;100.00;99788.22;5072427;28;20029;-67
2023/03/08 02:40:10;;;;;;;133.32;53.53;;;;;;;-0.64;100.00;99782.16;5072644;28;20530;-68
2023/03/08 02:42:36;;;;;;;139.05;53.60;;;;;;;-0.63;100.00;99775.22;5072613;28;20119;-68
2023/03/08 02:45:01;;;;;;;132.48;52.63;;;;;;;-0.63;100.00;99770.03;5072353;28;20060;-68
2023/03/08 02:47:27;;;;;;;126.13;50.95;;;;;;;-0.64;100.00;99771.75;5072458;28;20028;-68
2023/03/08 02:49:52;;;;;;;135.63;52.80;;;;;;;-0.63;100.00;99781.28;5072389;28;20059;-69
2023/03/08 02:52:17;;;;;;;131.88;52.55;;;;;;;-0.62;100.00;99777.00;5076421;28;20052;-67
2023/03/08 02:54:42;;;;;;;131.63;52.80;;;;;;;-0.62;100.00;99775.28;5076611;28;20025;-68
2023/03/08 02:57:08;;;;;;;131.23;52.17;;;;;;;-0.61;100.00;99773.56;5076252;28;20131;-68
2023/03/08 02:59:33;;;;;;;122.40;48.72;;;;;;;-0.62;100.00;99775.28;5076241;28;20494;-68
2023/03/08 03:01:59;;;;;;;122.47;51.25;;;;;;;-0.62;100.00;99762.28;5076504;28;20490;-67
2023/03/08 03:04:27;;;;;;;129.25;51.60;;;;;;;-0.62;100.00;99769.22;5076303;28;20517;-68
2023/03/08 03:06:52;;;;;;;125.15;51.28;;;;;;;-0.63;100.00;99764.84;5072240;28;20083;-68
2023/03/08 03:09:18;;;;;;;123.57;49.40;;;;;;;-0.64;100.00;99760.47;5076276;28;20036;-68
2023/03/08 03:11:43;;;;;;;116.63;49.60;;;;;;;-0.65;100.00;99748.34;5076048;28;20026;-68
2023/03/08 03:14:08;;;;;;;114.03;48.80;;;;;;;-0.63;100.00;99739.75;5076179;28;20033;-68
2023/03/08 03:16:35;;;;;;;121.68;50.28;;;;;;;-0.63;100.00;99746.66;5075968;28;20035;-68
2023/03/08 03:19:00;;;;;;;114.18;48.47;;;;;;;-0.63;100.00;99738.88;5075922;28;20391;-68
2023/03/08 03:21:26;;;;;;;112.35;49.05;;;;;;;-0.64;100.00;99734.50;5076026;28;20020;-68
2023/03/08 03:23:53;;;;;;;114.20;49.25;;;;;;;-0.62;100.00;99738.06;5075873;28;20040;-70
2023/03/08 03:26:21;;;;;;;119.30;50.13;;;;;;;-0.64;100.00;99738.00;5075770;28;20099;-71
2023/03/08 03:28:47;;;;;;;120.32;49.00;;;;;;;-0.64;100.00;99729.31;5075827;28;20070;-69
2023/03/08 03:31:16;;;;;;;114.32;48.72;;;;;;;-0.65;100.00;99712.00;5075691;28;20033;-67
2023/03/08 03:33:42;;;;;;;111.97;48.85;;;;;;;-0.65;100.00;99702.50;5075715;28;20021;-67
2023/03/08 03:36:10;;;;;;;111.70;49.17;;;;;;;-0.65;100.00;99696.44;5075760;28;20532;-70
2023/03/08 03:38:36;;;;;;;112.82;48.10;;;;;;;-0.66;100.00;99689.47;5075626;28;20032;-69
2023/03/08 03:41:06;;;;;;;106.78;46.30;;;;;;;-0.68;100.00;99693.72;5075561;28;20028;-74
2023/03/08 03:43:32;;;;;;;117.47;49.53;;;;;;;-0.73;100.00;99689.28;5075423;28;20033;-69
2023/03/08 03:46:00;;;;;;;108.07;47.60;;;;;;;-0.70;100.00;99696.25;5075664;28;20074;-67
2023/03/08 03:48:26;;;;;;;115.35;49.72;;;;;;;-0.72;100.00;99690.16;5075110;28;20124;-68
2023/03/08 03:51:00;;;;;;;112.57;48.70;;;;;;;-0.71;100.00;99687.59;5075399;28;20490;-70
2023/03/08 03:53:27;;;;;;;110.60;49.72;;;;;;;-0.71;100.00;99691.94;5071786;28;20151;-72
2023/03/08 03:55:52;;;;;;;114.93;50.67;;;;;;;-0.71;100.00;99684.13;5071081;28;20103;-70
2023/03/08 03:58:18;;;;;;;115.63;51.35;;;;;;;-0.72;100.00;99678.03;5075436;28;20064;-68
2023/03/08 04:00:44;;;;;;;115.05;50.03;;;;;;;-0.72;100.00;99674.59;5074242;28;20110;-68
2023/03/08 04:03:09;;;;;;;116.97;49.63;;;;;;;-0.72;100.00;99680.66;5075315;28;20033;-70
2023/03/08 04:05:35;;;;;;;117.95;50.60;;;;;;;-0.74;100.00;99681.44;5075287;28;20028;-67
2023/03/08 04:08:00;;;;;;;118.93;50.72;;;;;;;-0.76;100.00;99668.44;5075148;28;20064;-67
2023/03/08 04:10:25;;;;;;;113.68;49.65;;;;;;;-0.75;100.00;99662.38;5075043;28;20537;-68
2023/03/08 04:12:51;;;;;;;105.00;48.40;;;;;;;-0.73;100.00;99668.53;5073871;28;20407;-70
2023/03/08 04:15:17;;;;;;;107.82;47.83;;;;;;;-0.71;100.00;99663.38;5075078;28;20028;-68
2023/03/08 04:17:42;;;;;;;114.85;49.08;;;;;;;-0.73;100.00;99660.72;5074888;28;20040;-68
2023/03/08 04:20:08;;;;;;;114.03;49.47;;;;;;;-0.74;100.00;99651.19;5075019;28;20056;-68
2023/03/08 04:22:34;;;;;;;111.10;47.92;;;;;;;-0.74;100.00;99642.53;5074689;28;20522;-67
2023/03/08 04:24:59;;;;;;;108.63;49.10;;;;;;;-0.73;100.00;99642.56;5074771;28;20025;-67
2023/03/08 04:27:25;;;;;;;100.75;46.75;;;;;;;-0.69;100.00;99634.88;5074927;28;20036;-67
2023/03/08 04:29:51;;;;;;;97.65;45.03;;;;;;;-0.67;100.00;99628.00;5074574;28;20023;-67
2023/03/08 04:32:16;;;;;;;96.38;44.97;;;;;;;-0.65;100.00;99626.34;5074626;28;20029;-68
2023/03/08 04:34:42;;;;;;;93.50;44.25;;;;;;;-0.62;100.00;99623.84;5074853;28;20090;-69
2023/03/08 04:37:10;;;;;;;96.10;44.65;;;;;;;-0.62;100.00;99618.63;5074544;28;20070;-68
2023/03/08 04:39:35;;;;;;;88.63;42.33;;;;;;;-0.63;100.00;99619.47;5074507;28;20032;-69
2023/03/08 04:42:01;;;;;;;91.38;42.72;;;;;;;-0.62;100.00;99613.44;5074617;28;20029;-68
2023/03/08 04:44:26;;;;;;;89.63;42.38;;;;;;;-0.62;100.00;99609.13;5074382;28;20109;-68
2023/03/08 04:46:52;;;;;;;91.78;42.13;;;;;;;-0.59;100.00;99605.75;5074279;28;20103;-68
2023/03/08 04:49:18;;;;;;;86.97;41.08;;;;;;;-0.58;100.00;99602.31;5074128;28;20505;-67
2023/03/08 04:51:43;;;;;;;81.90;39.00;;;;;;;-0.59;100.00;99597.97;5074175;28;20032;-67
2023/03/08 04:54:09;;;;;;;75.32;37.10;;;;;;;-0.59;100.00;99597.97;5074153;28;20472;-68
2023/03/08 04:56:34;;;;;;;69.60;36.08;;;;;;;-0.60;100.00;99596.19;5074248;28;20032;-67
2023/03/08 04:59:00;;;;;;;65.85;35.53;;;;;;;-0.62;100.00;99582.31;5074123;28;20028;-68
2023/03/08 05:01:25;;;;;;;64.07;35.38;;;;;;;-0.63;100.00;99581.41;5074260;28;20028;-68
2023/03/08 05:03:52;;;;;;;66.28;34.80;;;;;;;-0.64;100.00;99571.88;5074146;28;20083;-68
2023/03/08 05:06:19;;;;;;;66.07;34.45;;;;;;;-0.63;100.00;99570.16;5073878;28;20020;-68
2023/03/08 05:08:45;;;;;;;59.75;33.90;;;;;;;-0.63;100.00;99562.34;5073873;28;20133;-68
2023/03/08 05:11:17;;;;;;;59.13;31.52;;;;;;;-0.64;100.00;99563.19;5073559;28;20028;-68
2023/03/08 05:13:42;;;;;;;56.53;30.63;;;;;;;-0.65;100.00;99556.25;5073793;28;20081;-67
2023/03/08 05:16:08;;;;;;;57.60;30.88;;;;;;;-0.64;100.00;99558.00;5073692;28;20025;-68
2023/03/08 05:18:33;;;;;;;58.50;31.83;;;;;;;-0.65;100.00;99553.66;5073848;28;20048;-68
2023/03/08 05:21:02;;;;;;;57.58;31.67;;;;;;;-0.64;100.00;99547.59;5073555;28;20021;-67
2023/03/08 05:23:28;;;;;;;58.13;31.85;;;;;;;-0.65;100.00;99538.94;5073761;28;20107;-68
2023/03/08 05:25:55;;;;;;;59.50;31.80;;;;;;;-0.63;100.00;99539.88;5073707;28;20356;-67
2023/03/08 05:28:22;;;;;;;54.92;30.50;;;;;;;-0.64;100.00;99537.22;5073508;28;20063;-67
2023/03/08 05:30:48;;;;;;;55.83;31.00;;;;;;;-0.67;100.00;99530.25;5073359;28;20081;-67
2023/03/08 05:33:17;;;;;;;55.35;30.63;;;;;;;-0.67;100.00;99531.94;5073582;28;20024;-67
2023/03/08 05:35:43;;;;;;;55.58;31.77;;;;;;;-0.68;100.00;99519.78;5073314;28;20043;-70
2023/03/08 05:38:08;;;;;;;54.78;29.50;;;;;;;-0.68;100.00;99512.00;5073244;28;20029;-68
2023/03/08 05:40:34;;;;;;;52.80;29.25;;;;;;;-0.69;100.00;99508.53;5073454;28;20479;-66
2023/03/08 05:42:59;;;;;;;51.22;28.67;;;;;;;-0.71;100.00;99502.44;5073226;28;20111;-68
2023/03/08 05:45:24;;;;;;;48.72;27.25;;;;;;;-0.75;100.00;99495.41;5073393;28;20027;-67
2023/03/08 05:47:50;;;;;;;45.33;24.90;;;;;;;-0.78;100.00;99493.59;5072823;28;20052;-67
2023/03/08 05:50:15;;;;;;;46.28;24.98;;;;;;;-0.82;100.00;99480.50;5073355;28;20033;-67
2023/03/08 05:52:44;;;;;;;39.60;21.77;;;;;;;-0.89;100.00;99479.44;5073956;28;20037;-67
2023/03/08 05:55:09;;;;;;;36.50;18.95;;;;;;;-0.96;100.00;99472.28;5078552;28;20035;-68
2023/03/08 05:57:35;;;;;;;36.00;18.75;;;;;;;-0.99;100.00;99477.41;5078844;28;20032;-67
2023/03/08 06:00:03;;;;;;;34.92;18.02;;;;;;;-0.97;100.00;99465.38;5080144;28;20024;-67
2023/03/08 06:02:28;;;;;;;37.38;18.70;;;;;;;-1.00;100.00;99457.50;5076957;28;20484;-67
2023/03/08 06:04:54;;;;;;;37.35;19.63;;;;;;;-1.01;100.00;99453.13;5076950;28;20055;-67
2023/03/08 06:07:19;;;;;;;37.78;19.27;;;;;;;-1.07;100.00;99457.31;5077946;28;20040;-67
2023/03/08 06:09:44;;;;;;;35.50;17.73;;;;;;;-1.13;100.00;99448.47;5075968;28;20035;-67
2023/03/08 06:12:10;;;;;;;34.67;18.20;;;;;;;-1.14;100.00;99455.38;5075491;28;20051;-71
2023/03/08 06:14:35;;;;;;;35.75;19.52;;;;;;;-1.17;100.00;99451.81;5072591;28;20165;-68
2023/03/08 06:17:00;;;;;;;34.60;17.65;;;;;;;-1.20;100.00;99447.41;5072823;28;20107;-68
2023/03/08 06:19:26;;;;;;;34.55;16.77;;;;;;;-1.20;100.00;99446.53;5072664;28;20059;-70
2023/03/08 06:21:51;;;;;;;34.42;17.77;;;;;;;-1.23;100.00;99447.31;5072759;28;20028;-68
2023/03/08 06:24:16;;;;;;;34.15;17.50;;;;;;;-1.25;100.00;99449.88;5072046;28;20033;-69
2023/03/08 06:26:42;;;;;;;35.90;17.58;;;;;;;-1.28;100.00;99447.19;5072555;28;20028;-69
2023/03/08 06:29:07;;;;;;;34.50;17.48;;;;;;;-1.28;100.00;99448.88;5072729;28;20060;-69
2023/03/08 06:31:32;;;;;;;34.20;16.40;;;;;;;-1.27;100.00;99446.38;5072403;28;20505;-68
2023/03/08 06:33:57;;;;;;;33.58;16.15;;;;;;;-1.32;100.00;99445.34;5072685;28;20031;-68
2023/03/08 06:36:23;;;;;;;33.42;15.60;;;;;;;-1.33;100.00;99435.78;5072405;28;20024;-68
2023/03/08 06:38:49;;;;;;;32.25;15.50;;;;;;;-1.37;100.00;99438.25;5072507;28;20060;-68
2023/03/08 06:41:16;;;;;;;30.23;14.25;;;;;;;-1.35;100.00;99436.59;5072641;28;20021;-69
2023/03/08 06:43:42;;;;;;;30.52;14.02;;;;;;;-1.38;100.00;99428.72;5072421;28;20529;-68
2023/03/08 06:46:10;;;;;;;30.70;13.73;;;;;;;-1.39;100.00;99432.16;5072402;28;20058;-69
2023/03/08 06:48:36;;;;;;;29.73;13.77;;;;;;;-1.41;100.00;99425.19;5075885;28;20051;-69
2023/03/08 06:51:03;;;;;;;29.33;13.30;;;;;;;-1.41;100.00;99435.56;5073263;28;20032;-69
2023/03/08 06:53:28;;;;;;;28.73;13.40;;;;;;;-1.38;100.00;99436.50;5069963;28;20033;-68
2023/03/08 06:55:53;;;;;;;32.03;13.93;;;;;;;-1.43;100.00;99441.53;5072585;28;20036;-71
2023/03/08 06:58:19;;;;;;;29.23;13.50;;;;;;;-1.41;100.00;99443.34;5070791;28;20108;-71
2023/03/08 07:00:44;;;;;;;29.23;13.70;;;;;;;-1.40;100.00;99433.84;5073097;28;20037;-70
2023/03/08 07:03:11;;;;;;;29.20;13.32;;;;;;;-1.49;100.00;99436.19;5060471;28;20074;-69
2023/03/08 07:05:37;;;;;;;28.45;12.88;;;;;;;-1.47;100.00;99438.00;5068050;28;20036;-69
2023/03/08 07:08:03;;;;;;;28.55;12.73;;;;;;;-1.52;100.00;99431.78;5070297;28;20051;-70
2023/03/08 07:10:29;;;;;;;27.85;11.98;;;;;;;-1.53;100.00;99430.03;5064757;28;20537;-69
2023/03/08 07:12:54;;;;;;;26.73;11.25;;;;;;;-1.52;100.00;99424.00;5064999;28;20033;-69
2023/03/08 07:15:22;;;;;;;26.00;11.32;;;;;;;-1.50;100.00;99421.44;5067835;28;20140;-70
2023/03/08 07:17:49;;;;;;;27.55;11.52;;;;;;;-1.54;100.00;99414.41;5070176;28;20028;-70
2023/03/08 07:20:17;;;;;;;27.13;11.43;;;;;;;-1.50;100.00;99417.16;5068873;28;20094;-70
2023/03/08 07:22:44;;;;;;;26.40;10.75;;;;;;;-1.49;100.00;99413.72;5072114;28;20417;-73
2023/03/08 07:25:14;;;;;;;26.55;11.00;;;;;;;-1.43;100.00;99408.75;5070842;28;20065;-72
2023/03/08 07:27:40;;;;;;;26.23;10.50;;;;;;;-1.45;100.00;99410.38;5068535;28;20476;-71
2023/03/08 07:30:10;;;;;;;25.98;10.30;;;;;;;-1.46;100.00;99406.03;5068719;28;20055;-72
2023/03/08 07:32:38;;;;;;;24.80;10.20;;;;;;;-1.44;100.00;99396.59;5070891;28;20033;-71
2023/03/08 07:35:04;;;;;;;24.75;9.93;;;;;;;-1.46;100.00;99398.25;5070784;28;20029;-71
2023/03/08 07:37:29;;;;;;;23.85;9.27;;;;;;;-1.44;100.00;99396.59;5074945;28;20032;-70
2023/03/08 07:39:55;;;;;;;25.23;9.88;;;;;;;-1.39;100.00;99388.94;5067107;28;20031;-72
2023/03/08 07:42:20;;;;;;;24.23;9.55;;;;;;;-1.41;100.00;99385.44;5073077;28;20029;-71
2023/03/08 07:44:45;;;;;;;23.38;9.00;;;;;;;-1.42;100.00;99387.13;5069627;28;20411;-72
2023/03/08 07:47:11;;;;;;;24.20;9.70;;;;;;;-1.39;100.00;99388.94;5074073;28;20082;-72
2023/03/08 07:49:36;;;;;;;24.73;9.95;;;;;;;-1.41;100.00;99386.31;5070160;28;20052;-72
2023/03/08 07:52:02;;;;;;;23.90;9.63;;;;;;;-1.36;100.00;99377.78;5071689;28;20051;-71
2023/03/08 07:54:27;;;;;;;26.52;10.98;;;;;;;-1.35;100.00;99379.56;5072010;28;20537;-74
2023/03/08 07:56:53;;;;;;;25.58;10.70;;;;;;;-1.38;100.00;99375.16;5076489;28;20033;-71
2023/03/08 07:59:19;;;;;;;26.65;10.80;;;;;;;-1.33;100.00;99370.09;5077101;28;20033;-72
2023/03/08 08:01:44;;;;;;;28.35;11.95;;;;;;;-1.31;100.00;99368.41;5075956;28;20509;-70
2023/03/08 08:04:11;;;;;;;28.63;12.40;;;;;;;-1.26;100.00;99364.25;5072349;28;20377;-72
2023/03/08 08:06:37;;;;;;;29.00;12.55;;;;;;;-1.30;100.00;99363.28;5070569;28;20032;-71
2023/03/08 08:09:03;;;;;;;30.55;14.05;;;;;;;-1.28;100.00;99364.22;5074059;28;20099;-71
2023/03/08 08:11:28;;;;;;;32.53;15.25;;;;;;;-1.28;100.00;99363.31;5065027;28;20483;-71
2023/03/08 08:13:54;;;;;;;32.53;15.15;;;;;;;-1.28;100.00;99368.50;5070159;28;20065;-73
2023/03/08 08:16:19;;;;;;;34.25;16.52;;;;;;;-1.27;100.00;99360.78;5072700;28;20025;-73
2023/03/08 08:18:44;;;;;;;35.42;16.88;;;;;;;-1.25;100.00;99355.66;5065370;28;20099;-72
2023/03/08 08:21:14;;;;;;;35.75;18.15;;;;;;;-1.20;100.00;99350.59;5067923;28;20120;-71
2023/03/08 08:23:41;;;;;;;36.85;17.60;;;;;;;-1.20;100.00;99342.81;5068513;28;20032;-68
2023/03/08 08:26:09;;;;;;;36.60;18.95;;;;;;;-1.18;100.00;99335.94;5065129;28;20038;-68
2023/03/08 08:28:36;;;;;;;36.88;18.27;;;;;;;-1.16;100.00;99324.78;5067232;28;20029;-70
2023/03/08 08:31:05;;;;;;;36.50;18.17;;;;;;;-1.14;100.00;99330.88;5069942;28;20355;-70
2023/03/08 08:33:31;;;;;;;33.60;16.35;;;;;;;-1.22;100.00;99324.63;5067783;28;20104;-69
2023/03/08 08:35:57;;;;;;;34.25;16.30;;;;;;;-1.20;100.00;99320.34;5071677;28;20489;-68
2023/03/08 08:38:23;;;;;;;31.90;14.43;;;;;;;-1.23;100.00;99315.06;5068306;28;20024;-69
2023/03/08 08:40:49;;;;;;;31.83;14.63;;;;;;;-1.30;100.00;99310.53;5068293;28;20111;-69
2023/03/08 08:43:16;;;;;;;28.55;12.68;;;;;;;-1.32;100.00;99307.03;5068407;28;20099;-68
2023/03/08 08:45:46;;;;;;;31.00;13.60;;;;;;;-1.30;100.00;99311.41;5069945;28;20029;-69
2023/03/08 08:48:12;;;;;;;30.52;13.45;;;;;;;-1.25;100.00;99306.38;5069369;28;20364;-68
2023/03/08 08:50:39;;;;;;;30.83;13.63;;;;;;;-1.27;100.00;99310.63;5071761;28;20032;-68
2023/03/08 08:53:05;;;;;;;29.92;13.43;;;;;;;-1.22;100.00;99319.44;5072132;28;20036;-68
2023/03/08 08:55:30;;;;;;;29.00;12.52;;;;;;;-1.20;100.00;99322.94;5074346;28;20032;-69
2023/03/08 08:57:56;;;;;;;28.38;11.90;;;;;;;-1.15;100.00;99333.41;5071249;28;20084;-71
2023/03/08 09:00:21;;;;;;;26.48;11.65;;;;;;;-1.07;100.00;99330.19;5078067;28;20380;-69
2023/03/08 09:02:47;;;;;;;27.20;11.77;;;;;;;-1.09;100.00;99337.06;5067104;28;20064;-69
2023/03/08 09:05:12;;;;;;;29.13;12.77;;;;;;;-1.13;100.00;99340.41;5070626;28;20035;-69
2023/03/08 09:07:37;;;;;;;30.88;13.90;;;;;;;-1.11;100.00;99343.91;5069358;28;20455;-69
2023/03/08 09:10:03;;;;;;;30.15;14.27;;;;;;;-1.14;100.00;99338.66;5075448;28;20467;-68
2023/03/08 09:12:29;;;;;;;31.52;14.77;;;;;;;-1.14;100.00;99336.06;5074075;28;20533;-69
2023/03/08 09:14:54;;;;;;;31.70;14.50;;;;;;;-1.17;100.00;99332.50;5073769;28;20035;-69
2023/03/08 09:17:19;;;;;;;31.33;14.52;;;;;;;-1.21;100.00;99303.00;5073714;28;20028;-69
2023/03/08 09:19:45;;;;;;;28.98;13.75;;;;;;;-1.23;100.00;99287.41;5073899;28;20074;-69
2023/03/08 09:22:10;;;;;;;30.25;14.73;;;;;;;-1.19;100.00;99275.41;5073689;28;20089;-69
2023/03/08 09:24:36;;;;;;;29.05;14.15;;;;;;;-1.11;100.00;99273.88;5073631;28;20027;-68
2023/03/08 09:27:04;;;;;;;31.20;15.60;;;;;;;-1.08;100.00;99268.81;5070640;28;20063;-66
2023/03/08 09:29:29;;;;;;;31.30;15.43;;;;;;;-1.00;100.00;99268.13;5061282;28;20104;-67
2023/03/08 09:31:54;;;;;;;31.25;16.02;;;;;;;-0.89;100.00;99266.66;5065913;28;20127;-67
2023/03/08 09:34:20;;;;;;;30.17;15.57;;;;;;;-0.83;100.00;99268.53;5075303;28;20028;-71
2023/03/08 09:36:45;;;;;;;30.05;14.75;;;;;;;-0.79;100.00;99263.44;5071209;28;20612;-70
2023/03/08 09:39:12;;;;;;;28.98;14.68;;;;;;;-0.79;100.00;99258.25;5076728;28;20033;-69
2023/03/08 09:41:43;;;;;;;29.35;14.77;;;;;;;-0.69;100.00;99258.50;5064914;28;20069;-71
2023/03/08 09:44:15;;;;;;;29.42;14.43;;;;;;;-0.70;100.00;99252.41;5077967;28;20063;-70
2023/03/08 09:46:49;;;;;;;28.17;14.10;;;;;;;-0.77;100.00;99248.81;5069064;28;20071;-69
2023/03/08 09:49:23;;;;;;;29.00;15.40;;;;;;;-0.73;100.00;99241.97;5070765;28;20506;-72
2023/03/08 09:51:57;;;;;;;31.38;16.73;;;;;;;-0.56;100.00;99242.38;5065870;28;20063;-72
2023/03/08 09:54:23;;;;;;;31.15;18.35;;;;;;;-0.46;100.00;99233.97;5069368;28;20388;-69
2023/03/08 09:56:51;;;;;;;33.60;18.92;;;;;;;-0.36;100.00;99245.44;5071374;28;20464;-70
2023/03/08 09:59:59;;;;;;;33.00;19.73;;;;;;;-0.25;100.00;99249.16;5073539;28;20028;-72
2023/03/08 10:02:39;;;;;;;34.15;20.38;;;;;;;-0.14;100.00;99236.41;5003549;28;20520;-71
2023/03/08 10:05:15;;;;;;;35.42;22.90;;;;;;;0.06;100.00;99217.75;5005765;28;20064;-71
2023/03/08 10:07:59;;;;;;;33.88;21.52;;;;;;;0.17;100.00;99219.75;5044965;28;20127;-71
2023/03/08 10:10:35;;;;;;;35.13;23.00;;;;;;;0.24;100.00;99225.94;5065595;28;20033;-69
2023/03/08 10:13:29;;;;;;;34.88;21.95;;;;;;;0.45;100.00;99235.88;5074657;28;20016;-72
2023/03/08 10:16:03;;;;;;;35.75;22.42;;;;;;;0.57;100.00;99244.75;5051796;28;20052;-71
2023/03/08 10:18:41;;;;;;;35.72;23.23;;;;;;;0.45;100.00;99245.38;5064399;28;20039;-72
2023/03/08 10:21:16;;;;;;;34.53;23.20;;;;;;;0.27;100.00;99235.53;5068734;28;20166;-70
2023/03/08 10:23:44;;;;;;;33.90;22.50;;;;;;;0.20;100.00;99226.69;5063193;28;20107;-75
2023/03/08 10:26:14;;;;;;;34.25;22.02;;;;;;;0.27;100.00;99231.19;5066623;28;20031;-72
2023/03/08 10:28:39;;;;;;;35.10;22.58;;;;;;;0.29;100.00;99223.41;5064475;28;20427;-69
2023/03/08 10:31:24;;;;;;;35.90;23.35;;;;;;;0.46;100.00;99222.00;5065818;28;20021;-68
2023/03/08 10:34:12;;;;;;;37.63;24.00;;;;;;;0.64;100.00;99223.22;5066930;28;20029;-67
2023/03/08 10:37:01;;;;;;;37.55;24.95;;;;;;;0.71;100.00;99234.63;5062528;28;20067;-67
2023/03/08 10:39:27;;;;;;;37.45;24.60;;;;;;;0.62;100.00;99225.78;5072157;28;20031;-67
2023/03/08 10:42:00;;;;;;;36.78;24.08;;;;;;;0.65;100.00;99214.56;5072663;28;20024;-67
2023/03/08 10:44:35;;;;;;;38.25;25.05;;;;;;;0.67;100.00;99194.66;5070011;28;20378;-66
2023/03/08 10:47:15;;;;;;;36.30;24.75;;;;;;;0.75;100.00;99198.28;5068183;28;20033;-70
2023/03/08 10:49:42;;;;;;;37.50;25.48;;;;;;;0.91;100.00;99196.81;5069481;28;20049;-67
2023/03/08 10:52:22;;;;;;;35.80;24.58;;;;;;;0.85;100.00;99194.13;5076061;28;20380;-67
2023/03/08 10:55:10;;;;;;;34.17;23.15;;;;;;;0.77;100.00;99195.69;5076844;28;20020;-67
2023/03/08 10:57:36;;;;;;;34.40;23.58;;;;;;;0.64;100.00;99192.91;5067327;28;20031;-68
2023/03/08 11:00:19;;;;;;;32.85;22.88;;;;;;;0.66;100.00;99203.31;5071616;28;20040;-67
2023/03/08 11:02:47;;;;;;;32.00;21.67;;;;;;;0.58;100.00;99207.50;5068342;28;20039;-68
2023/03/08 11:05:30;;;;;;;31.42;21.42;;;;;;;0.56;100.00;99212.69;5072448;28;20094;-67
2023/03/08 11:07:58;;;;;;;31.35;21.42;;;;;;;0.50;100.00;99212.56;5060635;28;20037;-69